createdAt,value
2023-03-12T05:54:41.536Z,-3.10
2023-03-12T05:57:10.484Z,-2.30
2023-03-12T07:30:25.146Z,4.50
2023-03-12T07:32:52.207Z,6.50
2023-03-12T07:35:22.501Z,8.10
2023-03-12T07:37:49.808Z,9.00
2023-03-12T07:40:17.147Z,8.40
2023-03-12T07:42:44.235Z,7.50
2023-03-12T07:45:16.888Z,7.00
2023-03-12T07:47:44.727Z,7.10
2023-03-12T07:50:16.976Z,7.30
2023-03-12T07:52:46.984Z,8.40
2023-03-12T07:55:14.550Z,8.70
2023-03-12T07:57:46.214Z,9.00
2023-03-12T08:00:18.189Z,9.60
2023-03-12T08:02:45.814Z,10.80
2023-03-12T08:05:13.083Z,11.30
2023-03-12T08:07:40.839Z,12.40
2023-03-12T08:10:09.231Z,14.40
2023-03-12T08:12:40.278Z,15.80
2023-03-12T08:15:09.024Z,15.30
2023-03-12T08:17:36.701Z,13.90
2023-03-12T08:20:11.230Z,12.40
2023-03-12T08:22:39.390Z,11.20
2023-03-12T08:25:07.236Z,10.20
2023-03-12T08:42:30.853Z,9.30
2023-03-12T08:45:04.439Z,10.40
2023-03-12T08:47:32.475Z,12.00
2023-03-12T08:50:06.552Z,11.50
2023-03-12T08:52:37.343Z,10.80
2023-03-12T08:55:06.158Z,10.60
2023-03-12T08:57:43.074Z,10.80
2023-03-12T09:00:21.794Z,11.30
2023-03-12T09:02:50.352Z,11.90
2023-03-12T09:05:20.720Z,12.80
2023-03-12T09:07:52.031Z,12.90
2023-03-12T09:10:19.431Z,12.70
2023-03-12T09:12:56.908Z,12.10
2023-03-12T09:15:32.214Z,11.80
2023-03-12T09:17:59.423Z,12.00
2023-03-12T09:20:32.316Z,12.70
2023-03-12T09:22:59.475Z,13.70
2023-03-12T09:25:30.135Z,13.30
2023-03-12T09:27:57.404Z,12.40
2023-03-12T09:30:26.712Z,11.70
2023-03-12T09:32:54.396Z,11.40
2023-03-12T09:35:21.785Z,11.20
2023-03-12T09:37:51.298Z,10.80
2023-03-12T09:40:24.587Z,10.40
2023-03-12T09:43:02.339Z,10.30
2023-03-12T09:45:48.006Z,10.10
2023-03-12T09:48:46.343Z,9.90
2023-03-12T09:51:20.421Z,10.30
2023-03-12T09:53:59.768Z,11.10
2023-03-12T09:56:39.411Z,12.30
2023-03-12T09:59:12.871Z,13.60
2023-03-12T10:01:54.178Z,14.50
2023-03-12T10:04:37.695Z,14.50
2023-03-12T10:07:35.027Z,14.20
2023-03-12T10:10:45.877Z,14.60
2023-03-12T10:13:26.716Z,14.80
2023-03-12T10:16:12.084Z,14.10
2023-03-12T10:19:06.302Z,13.20
2023-03-12T10:21:44.077Z,12.30
2023-03-12T10:24:50.917Z,12.20
2023-03-12T10:27:22.887Z,12.10
2023-03-12T10:30:00.024Z,11.90
2023-03-12T10:33:00.600Z,11.40
2023-03-12T10:35:39.492Z,11.40
2023-03-12T10:38:14.821Z,11.90
2023-03-12T10:40:44.662Z,13.00
2023-03-12T10:43:19.322Z,12.90
2023-03-12T10:46:28.694Z,12.30
2023-03-12T10:49:28.065Z,11.50
2023-03-12T10:52:02.086Z,11.00
2023-03-12T10:54:33.128Z,12.00
2023-03-12T10:57:10.891Z,12.10
2023-03-12T10:59:53.719Z,11.80
2023-03-12T11:02:37.161Z,11.50
2023-03-12T11:05:42.711Z,11.50
2023-03-12T11:08:27.787Z,11.10
2023-03-12T11:10:56.705Z,10.80
2023-03-12T11:13:26.841Z,10.60
2023-03-12T11:16:09.861Z,10.20
2023-03-12T11:18:38.110Z,9.80
2023-03-12T11:21:09.678Z,9.60
